createdAt,value
2023-03-29T00:01:35.115Z,9.53
2023-03-29T00:04:04.547Z,9.50
2023-03-29T00:06:33.188Z,9.44
2023-03-29T00:09:01.699Z,9.45
2023-03-29T00:11:28.358Z,9.46
2023-03-29T00:13:54.985Z,9.46
2023-03-29T00:16:21.830Z,9.48
2023-03-29T00:18:48.651Z,9.49
2023-03-29T00:21:15.351Z,9.49
2023-03-29T00:23:41.849Z,9.47
2023-03-29T00:26:08.595Z,9.45
2023-03-29T00:28:35.613Z,9.41
2023-03-29T00:31:11.250Z,9.39
2023-03-29T00:33:38.064Z,9.38
2023-03-29T00:36:05.263Z,9.36
2023-03-29T00:38:32.089Z,9.32
2023-03-29T00:40:59.104Z,9.28
2023-03-29T00:43:25.901Z,9.23
2023-03-29T00:45:52.703Z,9.20
2023-03-29T00:48:27.976Z,9.11
2023-03-29T00:50:58.081Z,9.07
2023-03-29T00:53:35.993Z,9.10
2023-03-29T00:56:24.806Z,9.10
2023-03-29T00:58:59.223Z,9.08
2023-03-29T01:01:34.100Z,9.07
2023-03-29T01:04:08.610Z,9.06
2023-03-29T01:06:39.230Z,9.05
2023-03-29T01:09:09.328Z,9.05
2023-03-29T01:11:39.942Z,9.02
2023-03-29T01:14:19.162Z,9.00
2023-03-29T01:16:46.124Z,9.00
2023-03-29T01:19:16.277Z,8.99
2023-03-29T01:21:47.901Z,8.97
2023-03-29T01:24:44.477Z,8.93
2023-03-29T01:27:22.904Z,8.88
2023-03-29T01:30:00.299Z,8.85
2023-03-29T01:32:44.725Z,8.85
2023-03-29T01:35:16.400Z,8.82
2023-03-29T01:37:48.208Z,8.81
2023-03-29T01:40:14.825Z,8.82
2023-03-29T01:43:02.875Z,8.78
2023-03-29T01:45:35.744Z,8.80
2023-03-29T01:48:06.513Z,8.82
2023-03-29T01:51:08.516Z,8.84
2023-03-29T01:53:55.172Z,8.87
2023-03-29T01:56:24.866Z,8.90
2023-03-29T01:59:13.171Z,8.91
2023-03-29T02:01:43.726Z,8.92
2023-03-29T02:04:13.146Z,8.90
2023-03-29T02:06:40.948Z,8.87
2023-03-29T02:09:07.730Z,8.83
2023-03-29T02:11:36.067Z,8.81
2023-03-29T02:14:02.590Z,8.80
2023-03-29T02:16:29.120Z,8.81
2023-03-29T02:18:59.012Z,8.80
2023-03-29T02:21:37.170Z,8.76
2023-03-29T02:24:08.816Z,8.77
2023-03-29T02:26:36.164Z,8.73
2023-03-29T02:29:02.882Z,8.69
2023-03-29T02:31:35.823Z,8.68
2023-03-29T02:34:05.370Z,8.67
2023-03-29T02:36:41.528Z,8.65
2023-03-29T02:39:10.156Z,8.66
2023-03-29T02:41:38.099Z,8.68
2023-03-29T02:44:07.605Z,8.71
2023-03-29T02:46:34.716Z,8.74
2023-03-29T02:49:01.326Z,8.79
2023-03-29T02:51:33.242Z,8.81
2023-03-29T02:54:26.424Z,8.83
2023-03-29T02:57:00.356Z,8.82
2023-03-29T02:59:27.370Z,8.83
2023-03-29T03:01:53.973Z,8.84
2023-03-29T03:04:23.731Z,8.84
2023-03-29T03:06:50.462Z,8.84
2023-03-29T03:09:17.280Z,8.85
2023-03-29T03:11:43.821Z,8.85
2023-03-29T03:14:10.911Z,8.86
2023-03-29T03:16:37.516Z,8.88
2023-03-29T03:19:04.272Z,8.88
2023-03-29T03:21:30.967Z,8.86
2023-03-29T03:23:57.516Z,8.85
2023-03-29T03:26:24.989Z,8.85
2023-03-29T03:28:51.712Z,8.87
2023-03-29T03:31:19.598Z,8.87
2023-03-29T03:33:46.189Z,8.85
2023-03-29T03:36:12.845Z,8.86
2023-03-29T03:38:39.631Z,8.87
2023-03-29T03:41:09.489Z,8.88
2023-03-29T03:43:36.324Z,8.89
2023-03-29T03:46:03.033Z,8.88
2023-03-29T03:48:29.658Z,8.88
2023-03-29T03:50:58.395Z,8.87
2023-03-29T03:53:26.312Z,8.89
2023-03-29T03:55:55.919Z,8.90
2023-03-29T03:58:22.962Z,8.89
2023-03-29T04:00:50.445Z,8.90
2023-03-29T04:03:17.824Z,8.91
2023-03-29T04:05:45.804Z,8.93
2023-03-29T04:08:13.180Z,8.90
2023-03-29T04:10:42.870Z,8.89
2023-03-29T04:13:09.680Z,8.88
2023-03-29T04:15:39.262Z,8.85
2023-03-29T04:18:07.519Z,8.82
2023-03-29T04:20:34.551Z,8.80
2023-03-29T04:23:01.779Z,8.77
2023-03-29T04:25:28.473Z,8.74
2023-03-29T04:27:56.616Z,8.72
2023-03-29T04:30:23.333Z,8.70
2023-03-29T04:32:49.987Z,8.67
2023-03-29T04:35:16.616Z,8.65
2023-03-29T04:37:43.198Z,8.63
2023-03-29T04:40:14.373Z,8.61
2023-03-29T04:42:45.972Z,8.59
2023-03-29T04:45:19.332Z,8.56
2023-03-29T04:47:46.416Z,8.53
2023-03-29T04:50:21.364Z,8.51
2023-03-29T04:52:48.108Z,8.50
2023-03-29T04:55:14.618Z,8.49
2023-03-29T04:57:41.334Z,8.52
2023-03-29T05:00:15.136Z,8.56
2023-03-29T05:02:45.606Z,8.59
2023-03-29T05:05:13.248Z,8.62
2023-03-29T05:07:40.304Z,8.66
2023-03-29T05:10:07.477Z,8.68
2023-03-29T05:12:34.479Z,8.68
2023-03-29T05:15:01.258Z,8.69
2023-03-29T05:17:27.987Z,8.69
2023-03-29T05:19:55.134Z,8.72
2023-03-29T05:22:21.988Z,8.79
2023-03-29T05:24:48.650Z,8.82
2023-03-29T05:27:15.261Z,8.85
2023-03-29T05:29:41.872Z,8.87
2023-03-29T05:32:08.473Z,8.89
2023-03-29T05:34:35.551Z,8.92
2023-03-29T05:37:02.307Z,8.92
2023-03-29T05:39:29.042Z,8.93
2023-03-29T05:41:55.876Z,8.97
2023-03-29T05:44:22.400Z,9.01
2023-03-29T05:46:48.884Z,9.08
2023-03-29T05:49:15.403Z,9.10
2023-03-29T05:51:42.792Z,9.12
2023-03-29T05:54:09.320Z,9.15
2023-03-29T05:56:35.917Z,9.17
2023-03-29T05:59:02.562Z,9.16
2023-03-29T06:01:29.622Z,9.17
2023-03-29T06:03:57.440Z,9.20
2023-03-29T06:06:24.052Z,9.22
2023-03-29T06:08:50.684Z,9.22
2023-03-29T06:11:17.684Z,9.23
2023-03-29T06:13:44.286Z,9.26
2023-03-29T06:16:11.243Z,9.27
2023-03-29T06:18:41.230Z,9.29
2023-03-29T06:21:09.413Z,9.33
2023-03-29T06:23:38.139Z,9.37
2023-03-29T06:26:05.851Z,9.44
2023-03-29T06:28:33.011Z,9.45
2023-03-29T06:31:02.734Z,9.52
2023-03-29T06:33:30.919Z,9.63
2023-03-29T06:35:57.721Z,9.72
2023-03-29T06:38:26.751Z,9.80
2023-03-29T06:41:00.691Z,9.86
2023-03-29T06:43:27.320Z,9.95
2023-03-29T06:45:54.297Z,10.04
2023-03-29T06:48:21.330Z,10.11
2023-03-29T06:50:48.482Z,10.16
2023-03-29T06:53:18.461Z,10.18
2023-03-29T06:55:45.723Z,10.22
2023-03-29T06:58:12.404Z,10.25
2023-03-29T07:00:39.389Z,10.27
2023-03-29T07:03:08.146Z,10.34
2023-03-29T07:05:36.524Z,10.43
2023-03-29T07:08:05.875Z,10.52
2023-03-29T07:10:38.268Z,10.62
2023-03-29T07:13:09.031Z,10.73
2023-03-29T07:15:36.096Z,10.82
2023-03-29T07:18:04.827Z,10.91
2023-03-29T07:20:33.718Z,11.01
2023-03-29T07:23:00.308Z,11.11
2023-03-29T07:25:27.732Z,11.22
2023-03-29T07:27:54.300Z,11.39
2023-03-29T07:30:24.036Z,11.52
2023-03-29T07:32:51.307Z,11.65
2023-03-29T07:35:18.113Z,11.76
2023-03-29T07:37:45.433Z,11.87
2023-03-29T07:40:23.918Z,12.03
2023-03-29T07:42:55.207Z,12.17
2023-03-29T07:45:26.452Z,12.25
2023-03-29T07:47:59.516Z,12.33
2023-03-29T07:50:32.463Z,12.37
2023-03-29T07:53:00.875Z,12.36
2023-03-29T07:55:27.704Z,12.34
2023-03-29T07:57:54.462Z,12.27
2023-03-29T08:00:22.311Z,12.19
2023-03-29T08:02:50.861Z,12.16
2023-03-29T08:05:23.430Z,12.16
2023-03-29T08:07:56.148Z,12.15
2023-03-29T08:10:22.848Z,12.12
2023-03-29T08:12:50.301Z,12.09
2023-03-29T08:15:19.095Z,12.06
2023-03-29T08:17:45.842Z,12.11
2023-03-29T08:20:15.093Z,12.16
2023-03-29T08:22:42.242Z,12.22
2023-03-29T08:25:09.640Z,12.26
2023-03-29T08:27:37.501Z,12.31
2023-03-29T08:30:06.775Z,12.31
2023-03-29T08:32:33.404Z,12.31
2023-03-29T08:35:03.804Z,12.34
2023-03-29T08:37:31.782Z,12.39
2023-03-29T08:39:58.707Z,12.45
2023-03-29T08:42:52.881Z,12.50
2023-03-29T08:45:56.799Z,12.59
2023-03-29T08:48:29.937Z,12.72
2023-03-29T08:51:03.997Z,12.79
2023-03-29T08:53:44.212Z,12.84
2023-03-29T08:56:18.586Z,12.84
2023-03-29T08:58:46.612Z,12.83
2023-03-29T09:01:13.316Z,12.85
2023-03-29T09:04:09.849Z,12.94
2023-03-29T09:06:39.237Z,13.05
2023-03-29T09:09:06.584Z,13.11
2023-03-29T09:12:04.246Z,13.11
2023-03-29T09:14:56.131Z,13.09
2023-03-29T09:17:26.414Z,13.09
2023-03-29T09:20:26.205Z,13.07
2023-03-29T09:23:18.311Z,13.08
2023-03-29T09:26:08.315Z,13.08
2023-03-29T09:28:38.358Z,13.12
2023-03-29T09:31:16.778Z,13.18
2023-03-29T09:33:52.205Z,13.25
2023-03-29T09:36:37.563Z,13.30
2023-03-29T09:39:05.235Z,13.35
2023-03-29T09:41:38.259Z,13.37
2023-03-29T09:44:28.224Z,13.40
2023-03-29T09:47:24.981Z,13.53
2023-03-29T09:49:57.198Z,13.55
2023-03-29T09:52:23.861Z,13.57
2023-03-29T09:54:50.736Z,13.65
2023-03-29T09:57:18.297Z,13.74
2023-03-29T09:59:46.306Z,13.91
2023-03-29T10:02:14.117Z,14.20
2023-03-29T10:04:45.721Z,14.42
2023-03-29T10:07:20.623Z,14.39
2023-03-29T10:09:50.582Z,14.28
2023-03-29T10:12:17.551Z,14.33
2023-03-29T10:14:53.949Z,14.59
2023-03-29T10:17:25.802Z,14.83
2023-03-29T10:19:53.435Z,14.99
2023-03-29T10:22:23.711Z,15.12
2023-03-29T10:24:52.651Z,15.19
2023-03-29T10:27:24.545Z,15.17
2023-03-29T10:29:55.763Z,15.22
2023-03-29T10:32:28.759Z,15.23
2023-03-29T10:34:55.601Z,15.22
2023-03-29T10:37:23.570Z,15.15
2023-03-29T10:39:50.589Z,14.92
2023-03-29T10:42:18.686Z,14.71
2023-03-29T10:44:57.304Z,14.61
2023-03-29T10:47:24.652Z,14.49
2023-03-29T10:49:59.625Z,14.43
2023-03-29T10:52:26.633Z,14.46
2023-03-29T10:54:55.069Z,14.47
2023-03-29T10:57:45.306Z,14.48
2023-03-29T11:00:18.112Z,14.54
2023-03-29T11:03:17.058Z,14.56
2023-03-29T11:06:23.682Z,14.64
2023-03-29T11:08:57.812Z,14.71
2023-03-29T11:11:30.102Z,14.72
2023-03-29T11:14:02.648Z,14.72
2023-03-29T11:16:56.852Z,14.77
2023-03-29T11:19:43.369Z,14.84
2023-03-29T11:22:49.623Z,14.86
2023-03-29T11:25:38.501Z,14.92
2023-03-29T11:28:18.296Z,15.17
2023-03-29T11:31:10.269Z,15.31
2023-03-29T11:33:55.687Z,15.40
2023-03-29T11:37:12.404Z,15.43
2023-03-29T11:39:54.896Z,15.45
2023-03-29T11:42:25.322Z,15.41
2023-03-29T11:44:57.590Z,15.48
2023-03-29T11:47:37.355Z,15.59
2023-03-29T11:50:23.949Z,15.68
2023-03-29T11:53:16.127Z,15.75
2023-03-29T11:55:42.571Z,15.76
2023-03-29T11:58:27.019Z,15.85
2023-03-29T12:01:17.132Z,15.94
2023-03-29T12:03:57.080Z,16.03
2023-03-29T12:06:39.288Z,16.09
2023-03-29T12:09:16.242Z,16.23
2023-03-29T12:11:50.360Z,16.26
2023-03-29T12:14:24.454Z,16.20
2023-03-29T12:17:04.668Z,16.26
2023-03-29T12:19:41.783Z,16.33
2023-03-29T12:22:10.074Z,16.43
2023-03-29T12:24:40.428Z,16.53
2023-03-29T12:27:19.860Z,16.61
2023-03-29T12:30:14.637Z,16.69
2023-03-29T12:32:59.528Z,16.73
2023-03-29T12:35:29.171Z,16.80
2023-03-29T12:38:17.095Z,16.83
2023-03-29T12:40:48.770Z,16.80
2023-03-29T12:43:24.449Z,16.78
2023-03-29T12:45:57.085Z,16.72
2023-03-29T12:48:27.685Z,16.82
2023-03-29T12:51:07.698Z,16.85
2023-03-29T12:53:36.500Z,16.91
2023-03-29T12:56:03.720Z,16.99
2023-03-29T12:58:30.682Z,17.04
2023-03-29T13:01:07.318Z,17.09
2023-03-29T13:03:40.126Z,17.07
2023-03-29T13:06:10.487Z,17.05
2023-03-29T13:08:46.050Z,17.07
2023-03-29T13:11:26.086Z,17.12
2023-03-29T13:13:53.326Z,17.15
2023-03-29T13:16:28.673Z,17.13
2023-03-29T13:19:36.750Z,17.07
2023-03-29T13:22:12.407Z,17.01
2023-03-29T13:25:06.061Z,16.99
2023-03-29T13:27:45.419Z,17.04
2023-03-29T13:30:26.109Z,17.08
2023-03-29T13:33:07.501Z,17.14
2023-03-29T13:35:51.224Z,17.17
2023-03-29T13:38:31.819Z,17.20
2023-03-29T13:41:07.253Z,17.25
2023-03-29T13:43:37.644Z,17.27
2023-03-29T13:46:06.861Z,17.24
2023-03-29T13:48:36.600Z,17.24
2023-03-29T13:51:18.529Z,17.21
2023-03-29T13:53:49.874Z,17.16
2023-03-29T13:56:20.219Z,17.15
2023-03-29T13:59:03.938Z,17.12
2023-03-29T14:01:53.717Z,17.10
2023-03-29T14:04:26.756Z,17.03
2023-03-29T14:06:56.164Z,17.01
2023-03-29T14:09:28.740Z,16.96
2023-03-29T14:11:55.837Z,16.92
2023-03-29T14:14:26.872Z,16.92
2023-03-29T14:16:55.878Z,16.94
2023-03-29T14:19:34.588Z,16.80
2023-03-29T14:22:02.600Z,16.69
2023-03-29T14:24:48.045Z,16.59
2023-03-29T14:27:16.568Z,16.52
2023-03-29T14:29:47.533Z,16.49
2023-03-29T14:32:18.774Z,16.48
2023-03-29T14:34:49.822Z,16.46
2023-03-29T14:37:21.929Z,16.49
2023-03-29T14:39:50.591Z,16.51
2023-03-29T14:42:25.295Z,16.54
2023-03-29T14:44:58.020Z,16.53
2023-03-29T14:47:28.516Z,16.53
2023-03-29T14:49:58.859Z,16.54
2023-03-29T14:52:26.037Z,16.53
2023-03-29T14:54:56.582Z,16.49
2023-03-29T14:57:26.411Z,16.42
2023-03-29T15:00:09.296Z,16.37
2023-03-29T15:02:35.861Z,16.36
2023-03-29T15:05:05.513Z,16.37
2023-03-29T15:07:34.915Z,16.32
2023-03-29T15:10:03.092Z,16.23
2023-03-29T15:12:30.768Z,16.13
2023-03-29T15:14:58.136Z,16.11
2023-03-29T15:17:49.588Z,16.11
2023-03-29T15:20:26.418Z,16.10
2023-03-29T15:22:59.359Z,16.09
2023-03-29T15:25:34.539Z,16.08
2023-03-29T15:28:01.858Z,15.90
2023-03-29T15:30:34.504Z,15.78
2023-03-29T15:33:15.619Z,15.57
2023-03-29T15:35:43.121Z,15.43
2023-03-29T15:38:12.491Z,15.45
2023-03-29T15:40:39.159Z,15.48
2023-03-29T15:43:05.989Z,15.51
2023-03-29T15:45:33.073Z,15.53
2023-03-29T15:48:04.798Z,15.52
2023-03-29T15:50:31.857Z,15.50
2023-03-29T15:53:08.598Z,15.52
2023-03-29T15:55:44.661Z,15.53
2023-03-29T15:58:20.577Z,15.52
2023-03-29T16:00:54.023Z,15.45
2023-03-29T16:03:22.412Z,15.27
2023-03-29T16:05:49.141Z,15.13
2023-03-29T16:08:15.733Z,15.07
2023-03-29T16:10:44.002Z,15.09
2023-03-29T16:13:13.409Z,15.12
2023-03-29T16:15:40.980Z,15.15
2023-03-29T16:18:07.549Z,15.19
2023-03-29T16:20:34.150Z,15.15
2023-03-29T16:23:01.039Z,15.06
2023-03-29T16:25:27.880Z,14.90
2023-03-29T16:27:54.467Z,14.83
2023-03-29T16:30:21.037Z,14.75
2023-03-29T16:32:47.634Z,14.67
2023-03-29T16:35:37.004Z,14.62
2023-03-29T16:38:04.376Z,14.54
2023-03-29T16:40:30.945Z,14.46
2023-03-29T16:42:57.513Z,14.46
2023-03-29T16:45:24.050Z,14.39
2023-03-29T16:47:51.167Z,14.30
2023-03-29T16:50:19.749Z,14.26
2023-03-29T16:52:48.529Z,14.21
2023-03-29T16:55:18.939Z,14.10
2023-03-29T16:57:47.372Z,14.06
2023-03-29T17:00:18.669Z,14.12
2023-03-29T17:02:45.949Z,14.17
2023-03-29T17:05:12.777Z,14.21
2023-03-29T17:07:39.902Z,14.27
2023-03-29T17:10:08.266Z,14.26
2023-03-29T17:12:35.114Z,14.18
2023-03-29T17:15:01.659Z,14.18
2023-03-29T17:17:28.380Z,14.24
2023-03-29T17:19:56.693Z,14.30
2023-03-29T17:22:24.768Z,14.35
2023-03-29T17:24:51.622Z,14.40
2023-03-29T17:27:18.543Z,14.43
2023-03-29T17:29:45.245Z,14.44
2023-03-29T17:32:11.783Z,14.39
2023-03-29T17:34:38.713Z,14.29
2023-03-29T17:37:05.334Z,14.27
2023-03-29T17:39:32.131Z,14.27
2023-03-29T17:41:58.661Z,14.20
2023-03-29T17:44:25.664Z,14.16
2023-03-29T17:46:52.230Z,14.13
2023-03-29T17:49:18.909Z,14.11
2023-03-29T17:51:46.301Z,14.13
2023-03-29T17:54:12.863Z,14.16
2023-03-29T17:56:39.453Z,14.17
2023-03-29T17:59:05.976Z,14.23
2023-03-29T18:01:32.809Z,14.26
2023-03-29T18:03:59.485Z,14.29
2023-03-29T18:06:26.045Z,14.33
2023-03-29T18:08:54.313Z,14.34
2023-03-29T18:11:22.902Z,14.35
2023-03-29T18:13:50.863Z,14.35
2023-03-29T18:16:18.342Z,14.37
2023-03-29T18:18:46.334Z,14.37
2023-03-29T18:21:14.608Z,14.34
2023-03-29T18:23:44.944Z,14.31
2023-03-29T18:26:12.397Z,14.28
2023-03-29T18:28:40.562Z,14.29
2023-03-29T18:31:07.897Z,14.33
2023-03-29T18:33:37.224Z,14.34
2023-03-29T18:36:08.440Z,14.36
2023-03-29T18:38:40.411Z,14.38
2023-03-29T18:41:08.617Z,14.35
2023-03-29T18:43:35.477Z,14.32
2023-03-29T18:46:02.246Z,14.30
2023-03-29T18:48:29.878Z,14.18
2023-03-29T18:50:57.257Z,14.07
2023-03-29T18:53:24.148Z,14.04
2023-03-29T18:55:50.744Z,14.04
2023-03-29T18:58:20.417Z,14.05
2023-03-29T19:00:48.169Z,14.05
2023-03-29T19:03:14.840Z,14.05
2023-03-29T19:05:43.856Z,14.02
2023-03-29T19:08:10.489Z,14.01
2023-03-29T19:10:38.606Z,14.02
2023-03-29T19:13:05.550Z,13.98
2023-03-29T19:15:33.971Z,13.96
2023-03-29T19:18:01.010Z,13.90
2023-03-29T19:20:27.777Z,13.88
2023-03-29T19:22:54.398Z,13.90
2023-03-29T19:25:21.059Z,13.87
2023-03-29T19:27:48.044Z,13.85
2023-03-29T19:30:14.978Z,13.81
2023-03-29T19:32:41.615Z,13.81
2023-03-29T19:35:09.651Z,13.79
2023-03-29T19:37:36.563Z,13.77
2023-03-29T19:40:06.562Z,13.75
2023-03-29T19:42:40.306Z,13.72
2023-03-29T19:45:08.312Z,13.72
2023-03-29T19:47:35.788Z,13.74
2023-03-29T19:50:04.702Z,13.79
2023-03-29T19:52:33.814Z,13.85
2023-03-29T19:55:00.544Z,13.86
2023-03-29T19:57:28.293Z,13.85
2023-03-29T19:59:54.900Z,13.86
2023-03-29T20:02:21.466Z,13.88
2023-03-29T20:04:48.022Z,13.94
2023-03-29T20:07:14.518Z,13.96
2023-03-29T20:09:44.641Z,13.84
2023-03-29T20:12:11.874Z,13.76
2023-03-29T20:14:40.257Z,13.68
2023-03-29T20:17:07.420Z,13.72
2023-03-29T20:19:36.629Z,13.75
2023-03-29T20:22:04.022Z,13.80
2023-03-29T20:24:32.649Z,13.84
2023-03-29T20:26:59.403Z,13.90
2023-03-29T20:29:25.939Z,13.95
2023-03-29T20:31:53.159Z,13.96
2023-03-29T20:34:20.229Z,13.97
2023-03-29T20:36:47.033Z,13.99
2023-03-29T20:39:17.871Z,14.00
2023-03-29T20:41:47.639Z,14.04
2023-03-29T20:44:16.728Z,14.07
2023-03-29T20:46:54.603Z,14.10
2023-03-29T20:49:26.531Z,14.09
2023-03-29T20:51:59.175Z,14.06
2023-03-29T20:54:26.205Z,13.99
2023-03-29T20:56:54.778Z,13.97
2023-03-29T20:59:22.789Z,13.97
2023-03-29T21:01:50.324Z,13.99
2023-03-29T21:04:17.001Z,13.96
2023-03-29T21:06:45.654Z,13.77
2023-03-29T21:09:13.678Z,13.58
2023-03-29T21:11:40.897Z,13.42
2023-03-29T21:14:07.429Z,13.40
2023-03-29T21:16:33.986Z,13.49
2023-03-29T21:19:00.766Z,13.57
2023-03-29T21:21:27.357Z,13.63
2023-03-29T21:23:53.877Z,13.58
2023-03-29T21:26:20.446Z,13.46
2023-03-29T21:28:48.658Z,13.36
2023-03-29T21:31:15.320Z,13.23
2023-03-29T21:33:41.833Z,13.15
2023-03-29T21:36:08.659Z,13.24
2023-03-29T21:38:35.527Z,13.28
2023-03-29T21:41:03.209Z,13.28
2023-03-29T21:43:30.021Z,13.29
2023-03-29T21:45:57.622Z,13.17
2023-03-29T21:48:24.184Z,13.15
2023-03-29T21:50:51.001Z,13.10
2023-03-29T21:53:18.415Z,13.00
2023-03-29T21:55:44.988Z,12.99
2023-03-29T21:58:11.493Z,13.00
2023-03-29T22:00:38.061Z,13.03
2023-03-29T22:03:04.673Z,13.03
2023-03-29T22:05:31.260Z,13.02
2023-03-29T22:07:58.710Z,13.00
2023-03-29T22:10:25.592Z,12.96
2023-03-29T22:12:52.611Z,13.01
2023-03-29T22:15:22.813Z,13.09
2023-03-29T22:17:50.482Z,13.08
2023-03-29T22:20:18.498Z,12.97
2023-03-29T22:22:49.534Z,12.78
2023-03-29T22:25:17.676Z,12.67
2023-03-29T22:27:45.920Z,12.57
2023-03-29T22:30:14.104Z,12.50
2023-03-29T22:32:42.443Z,12.47
2023-03-29T22:35:12.457Z,12.39
2023-03-29T22:37:42.965Z,12.35
2023-03-29T22:40:12.064Z,12.38
2023-03-29T22:42:38.729Z,12.44
2023-03-29T22:45:06.560Z,12.45
2023-03-29T22:47:33.436Z,12.43
2023-03-29T22:49:59.954Z,12.45
2023-03-29T22:52:26.640Z,12.41
2023-03-29T22:54:53.214Z,12.32
2023-03-29T22:57:19.846Z,12.17
2023-03-29T22:59:46.818Z,12.11
2023-03-29T23:02:13.336Z,12.16
2023-03-29T23:04:40.032Z,12.24
2023-03-29T23:07:06.683Z,12.18
2023-03-29T23:09:33.410Z,12.21
2023-03-29T23:12:01.120Z,12.30
2023-03-29T23:14:27.895Z,12.36
2023-03-29T23:16:54.495Z,12.49
2023-03-29T23:19:21.066Z,12.62
2023-03-29T23:21:47.544Z,12.71
2023-03-29T23:24:18.841Z,12.77
2023-03-29T23:26:45.896Z,12.79
2023-03-29T23:29:15.375Z,12.82
2023-03-29T23:31:41.992Z,12.81
2023-03-29T23:34:09.320Z,12.83
2023-03-29T23:36:35.915Z,12.82
2023-03-29T23:39:02.446Z,12.80
2023-03-29T23:41:30.482Z,12.79
2023-03-29T23:43:57.747Z,12.80
2023-03-29T23:46:24.675Z,12.80
2023-03-29T23:48:51.445Z,12.76
2023-03-29T23:51:18.895Z,12.71
2023-03-29T23:53:46.567Z,12.69
2023-03-29T23:56:13.218Z,12.68
2023-03-29T23:58:39.781Z,12.67
